sensor_id;sensor_type;location;lat;lon;timestamp;P1;durP1;ratioP1;P2;durP2;ratioP2
68858;SDS011;55864;49.238;8.092;2022-08-01T00:01:13;4.90;;;2.30;;
68858;SDS011;55864;49.238;8.092;2022-08-01T00:03:13;6.72;;;2.42;;
68858;SDS011;55864;49.238;8.092;2022-08-01T00:05:14;4.25;;;2.10;;
68858;SDS011;55864;49.238;8.092;2022-08-01T00:07:16;4.82;;;2.17;;
68858;SDS011;55864;49.238;8.092;2022-08-01T00:09:16;5.47;;;2.17;;
68858;SDS011;55864;49.238;8.092;2022-08-01T00:11:17;4.90;;;2.15;;
68858;SDS011;55864;49.238;8.092;2022-08-01T00:13:17;4.47;;;2.00;;
68858;SDS011;55864;49.238;8.092;2022-08-01T00:15:18;5.18;;;2.15;;
68858;SDS011;55864;49.238;8.092;2022-08-01T00:17:18;6.13;;;2.10;;
68858;SDS011;55864;49.238;8.092;2022-08-01T00:19:19;5.93;;;2.08;;
68858;SDS011;55864;49.238;8.092;2022-08-01T00:21:19;5.25;;;2.05;;
68858;SDS011;55864;49.238;8.092;2022-08-01T00:23:21;5.28;;;2.30;;
68858;SDS011;55864;49.238;8.092;2022-08-01T00:25:22;4.85;;;2.00;;
68858;SDS011;55864;49.238;8.092;2022-08-01T00:27:23;4.70;;;1.85;;
68858;SDS011;55864;49.238;8.092;2022-08-01T00:29:23;4.53;;;2.00;;
68858;SDS011;55864;49.238;8.092;2022-08-01T00:31:24;5.13;;;1.80;;
68858;SDS011;55864;49.238;8.092;2022-08-01T00:33:24;6.43;;;2.03;;
68858;SDS011;55864;49.238;8.092;2022-08-01T00:35:25;4.93;;;1.80;;
68858;SDS011;55864;49.238;8.092;2022-08-01T00:37:26;4.20;;;1.80;;
68858;SDS011;55864;49.238;8.092;2022-08-01T00:39:27;4.28;;;1.80;;
68858;SDS011;55864;49.238;8.092;2022-08-01T00:41:28;4.27;;;1.90;;
68858;SDS011;55864;49.238;8.092;2022-08-01T00:43:29;4.35;;;1.70;;
68858;SDS011;55864;49.238;8.092;2022-08-01T00:45:29;4.25;;;2.03;;
68858;SDS011;55864;49.238;8.092;2022-08-01T00:47:30;4.38;;;1.95;;
68858;SDS011;55864;49.238;8.092;2022-08-01T00:49:30;5.03;;;2.05;;
68858;SDS011;55864;49.238;8.092;2022-08-01T00:51:31;4.03;;;1.80;;
68858;SDS011;55864;49.238;8.092;2022-08-01T00:53:32;4.97;;;1.67;;
68858;SDS011;55864;49.238;8.092;2022-08-01T00:55:35;4.97;;;1.92;;
68858;SDS011;55864;49.238;8.092;2022-08-01T00:57:35;6.55;;;1.80;;
68858;SDS011;55864;49.238;8.092;2022-08-01T00:59:36;3.45;;;1.60;;
68858;SDS011;55864;49.238;8.092;2022-08-01T01:01:39;4.00;;;1.63;;
68858;SDS011;55864;49.238;8.092;2022-08-01T01:03:39;4.20;;;1.70;;
68858;SDS011;55864;49.238;8.092;2022-08-01T01:05:42;3.95;;;1.70;;
68858;SDS011;55864;49.238;8.092;2022-08-01T01:07:50;3.95;;;1.80;;
68858;SDS011;55864;49.238;8.092;2022-08-01T01:09:57;4.53;;;1.77;;
68858;SDS011;55864;49.238;8.092;2022-08-01T01:12:06;4.68;;;1.80;;
68858;SDS011;55864;49.238;8.092;2022-08-01T01:14:16;4.13;;;1.65;;
68858;SDS011;55864;49.238;8.092;2022-08-01T01:16:21;4.78;;;1.77;;
68858;SDS011;55864;49.238;8.092;2022-08-01T01:18:23;4.22;;;1.90;;
68858;SDS011;55864;49.238;8.092;2022-08-01T01:20:27;4.65;;;1.85;;
68858;SDS011;55864;49.238;8.092;2022-08-01T01:22:46;3.78;;;1.70;;
68858;SDS011;55864;49.238;8.092;2022-08-01T01:25:10;4.85;;;1.75;;
68858;SDS011;55864;49.238;8.092;2022-08-01T01:27:26;4.20;;;1.80;;
68858;SDS011;55864;49.238;8.092;2022-08-01T01:29:41;4.38;;;1.80;;
68858;SDS011;55864;49.238;8.092;2022-08-01T01:31:44;5.03;;;2.10;;
68858;SDS011;55864;49.238;8.092;2022-08-01T01:33:48;4.72;;;1.90;;
68858;SDS011;55864;49.238;8.092;2022-08-01T01:35:52;5.55;;;2.05;;
68858;SDS011;55864;49.238;8.092;2022-08-01T01:38:04;6.25;;;2.50;;
68858;SDS011;55864;49.238;8.092;2022-08-01T01:40:09;4.63;;;2.00;;
68858;SDS011;55864;49.238;8.092;2022-08-01T01:42:11;5.03;;;2.10;;
68858;SDS011;55864;49.238;8.092;2022-08-01T01:46:18;4.43;;;2.10;;
68858;SDS011;55864;49.238;8.092;2022-08-01T01:48:20;5.00;;;2.17;;
68858;SDS011;55864;49.238;8.092;2022-08-01T01:50:23;6.32;;;2.10;;
68858;SDS011;55864;49.238;8.092;2022-08-01T01:52:25;5.57;;;2.10;;
68858;SDS011;55864;49.238;8.092;2022-08-01T01:54:28;4.88;;;2.20;;
68858;SDS011;55864;49.238;8.092;2022-08-01T01:56:32;5.25;;;2.20;;
68858;SDS011;55864;49.238;8.092;2022-08-01T01:58:35;6.20;;;2.30;;
68858;SDS011;55864;49.238;8.092;2022-08-01T02:00:38;5.07;;;2.00;;
68858;SDS011;55864;49.238;8.092;2022-08-01T02:02:41;4.10;;;1.90;;
68858;SDS011;55864;49.238;8.092;2022-08-01T02:04:43;5.60;;;2.22;;
68858;SDS011;55864;49.238;8.092;2022-08-01T02:06:46;3.97;;;1.85;;
68858;SDS011;55864;49.238;8.092;2022-08-01T02:08:49;5.45;;;2.17;;
68858;SDS011;55864;49.238;8.092;2022-08-01T02:10:52;5.32;;;2.22;;
68858;SDS011;55864;49.238;8.092;2022-08-01T02:14:57;5.32;;;2.22;;
68858;SDS011;55864;49.238;8.092;2022-08-01T02:16:58;6.25;;;2.40;;
68858;SDS011;55864;49.238;8.092;2022-08-01T02:19:00;5.32;;;2.33;;
68858;SDS011;55864;49.238;8.092;2022-08-01T02:21:01;4.95;;;2.30;;
68858;SDS011;55864;49.238;8.092;2022-08-01T02:23:07;5.35;;;2.13;;
68858;SDS011;55864;49.238;8.092;2022-08-01T02:25:14;5.40;;;1.95;;
68858;SDS011;55864;49.238;8.092;2022-08-01T02:27:21;5.78;;;2.30;;
68858;SDS011;55864;49.238;8.092;2022-08-01T02:29:27;6.47;;;2.60;;
68858;SDS011;55864;49.238;8.092;2022-08-01T02:31:35;4.68;;;2.10;;
68858;SDS011;55864;49.238;8.092;2022-08-01T02:33:39;4.82;;;2.08;;
68858;SDS011;55864;49.238;8.092;2022-08-01T02:35:46;4.68;;;2.05;;
68858;SDS011;55864;49.238;8.092;2022-08-01T02:37:48;4.30;;;2.03;;
68858;SDS011;55864;49.238;8.092;2022-08-01T02:39:50;5.15;;;2.30;;
68858;SDS011;55864;49.238;8.092;2022-08-01T02:41:55;5.03;;;1.90;;
68858;SDS011;55864;49.238;8.092;2022-08-01T02:43:59;5.32;;;2.30;;
68858;SDS011;55864;49.238;8.092;2022-08-01T02:46:04;4.60;;;2.03;;
68858;SDS011;55864;49.238;8.092;2022-08-01T02:48:09;4.90;;;2.00;;
68858;SDS011;55864;49.238;8.092;2022-08-01T02:50:12;5.53;;;2.25;;
68858;SDS011;55864;49.238;8.092;2022-08-01T02:52:15;4.65;;;2.00;;
68858;SDS011;55864;49.238;8.092;2022-08-01T02:54:17;5.32;;;2.17;;
68858;SDS011;55864;49.238;8.092;2022-08-01T02:56:21;5.00;;;2.20;;
68858;SDS011;55864;49.238;8.092;2022-08-01T02:58:22;5.60;;;2.17;;
68858;SDS011;55864;49.238;8.092;2022-08-01T03:00:24;5.85;;;2.10;;
68858;SDS011;55864;49.238;8.092;2022-08-01T03:02:26;4.95;;;2.30;;
68858;SDS011;55864;49.238;8.092;2022-08-01T03:04:29;3.78;;;1.80;;
68858;SDS011;55864;49.238;8.092;2022-08-01T03:06:32;5.35;;;2.30;;
68858;SDS011;55864;49.238;8.092;2022-08-01T03:08:35;4.90;;;2.20;;
68858;SDS011;55864;49.238;8.092;2022-08-01T03:10:38;4.63;;;1.92;;
68858;SDS011;55864;49.238;8.092;2022-08-01T03:12:40;5.05;;;2.25;;
68858;SDS011;55864;49.238;8.092;2022-08-01T03:14:41;5.20;;;2.03;;
68858;SDS011;55864;49.238;8.092;2022-08-01T03:16:44;4.60;;;2.00;;
68858;SDS011;55864;49.238;8.092;2022-08-01T03:18:46;4.45;;;1.95;;
68858;SDS011;55864;49.238;8.092;2022-08-01T03:20:47;5.93;;;2.25;;
68858;SDS011;55864;49.238;8.092;2022-08-01T03:22:49;5.55;;;2.30;;
68858;SDS011;55864;49.238;8.092;2022-08-01T03:24:52;5.18;;;2.17;;
68858;SDS011;55864;49.238;8.092;2022-08-01T03:26:56;5.53;;;2.13;;
68858;SDS011;55864;49.238;8.092;2022-08-01T03:28:58;5.32;;;2.17;;
68858;SDS011;55864;49.238;8.092;2022-08-01T03:31:03;4.32;;;1.88;;
68858;SDS011;55864;49.238;8.092;2022-08-01T03:33:05;4.47;;;2.00;;
68858;SDS011;55864;49.238;8.092;2022-08-01T03:35:06;5.30;;;2.17;;
68858;SDS011;55864;49.238;8.092;2022-08-01T03:37:12;6.07;;;1.90;;
68858;SDS011;55864;49.238;8.092;2022-08-01T03:39:17;6.13;;;2.28;;
68858;SDS011;55864;49.238;8.092;2022-08-01T03:41:23;5.72;;;1.90;;
68858;SDS011;55864;49.238;8.092;2022-08-01T03:43:34;3.90;;;1.90;;
68858;SDS011;55864;49.238;8.092;2022-08-01T03:45:38;4.30;;;1.90;;
68858;SDS011;55864;49.238;8.092;2022-08-01T03:47:42;4.28;;;2.00;;
68858;SDS011;55864;49.238;8.092;2022-08-01T03:49:44;5.63;;;1.90;;
68858;SDS011;55864;49.238;8.092;2022-08-01T03:51:48;5.47;;;2.15;;
68858;SDS011;55864;49.238;8.092;2022-08-01T03:53:50;6.05;;;2.00;;
68858;SDS011;55864;49.238;8.092;2022-08-01T03:57:57;4.88;;;2.05;;
68858;SDS011;55864;49.238;8.092;2022-08-01T04:01:59;4.53;;;1.83;;
68858;SDS011;55864;49.238;8.092;2022-08-01T04:04:00;4.25;;;1.70;;
68858;SDS011;55864;49.238;8.092;2022-08-01T04:06:03;4.07;;;1.73;;
68858;SDS011;55864;49.238;8.092;2022-08-01T04:08:04;5.93;;;1.95;;
68858;SDS011;55864;49.238;8.092;2022-08-01T04:10:05;4.65;;;1.95;;
68858;SDS011;55864;49.238;8.092;2022-08-01T04:12:06;5.05;;;2.10;;
68858;SDS011;55864;49.238;8.092;2022-08-01T04:14:08;5.30;;;2.10;;
68858;SDS011;55864;49.238;8.092;2022-08-01T04:16:09;4.53;;;1.80;;
68858;SDS011;55864;49.238;8.092;2022-08-01T04:18:10;6.28;;;1.90;;
68858;SDS011;55864;49.238;8.092;2022-08-01T04:20:10;5.10;;;1.88;;
68858;SDS011;55864;49.238;8.092;2022-08-01T04:22:11;4.15;;;1.95;;
68858;SDS011;55864;49.238;8.092;2022-08-01T04:24:16;4.90;;;2.20;;
68858;SDS011;55864;49.238;8.092;2022-08-01T04:26:19;4.50;;;2.05;;
68858;SDS011;55864;49.238;8.092;2022-08-01T04:28:21;4.50;;;1.98;;
68858;SDS011;55864;49.238;8.092;2022-08-01T04:30:25;4.25;;;1.70;;
68858;SDS011;55864;49.238;8.092;2022-08-01T04:32:29;5.15;;;2.25;;
68858;SDS011;55864;49.238;8.092;2022-08-01T04:34:33;4.88;;;2.20;;
68858;SDS011;55864;49.238;8.092;2022-08-01T04:36:35;5.30;;;1.75;;
68858;SDS011;55864;49.238;8.092;2022-08-01T04:38:38;5.03;;;2.10;;
68858;SDS011;55864;49.238;8.092;2022-08-01T04:42:42;4.30;;;1.95;;
68858;SDS011;55864;49.238;8.092;2022-08-01T04:44:43;4.22;;;1.95;;
68858;SDS011;55864;49.238;8.092;2022-08-01T04:46:45;5.68;;;1.80;;
68858;SDS011;55864;49.238;8.092;2022-08-01T04:48:46;8.43;;;1.93;;
68858;SDS011;55864;49.238;8.092;2022-08-01T04:50:48;6.95;;;2.30;;
68858;SDS011;55864;49.238;8.092;2022-08-01T04:52:48;4.82;;;1.85;;
68858;SDS011;55864;49.238;8.092;2022-08-01T04:54:49;5.18;;;2.08;;
68858;SDS011;55864;49.238;8.092;2022-08-01T04:56:49;4.93;;;1.95;;
68858;SDS011;55864;49.238;8.092;2022-08-01T04:58:50;4.57;;;1.80;;
68858;SDS011;55864;49.238;8.092;2022-08-01T05:00:50;4.45;;;1.83;;
68858;SDS011;55864;49.238;8.092;2022-08-01T05:02:52;5.72;;;1.90;;
68858;SDS011;55864;49.238;8.092;2022-08-01T05:04:53;4.90;;;2.15;;
68858;SDS011;55864;49.238;8.092;2022-08-01T05:06:53;5.40;;;1.88;;
68858;SDS011;55864;49.238;8.092;2022-08-01T05:08:54;4.85;;;2.08;;
68858;SDS011;55864;49.238;8.092;2022-08-01T05:10:54;6.78;;;2.00;;
68858;SDS011;55864;49.238;8.092;2022-08-01T05:12:55;5.75;;;1.75;;
68858;SDS011;55864;49.238;8.092;2022-08-01T05:14:56;4.70;;;2.40;;
68858;SDS011;55864;49.238;8.092;2022-08-01T05:16:56;4.63;;;1.83;;
68858;SDS011;55864;49.238;8.092;2022-08-01T05:18:58;5.88;;;2.10;;
68858;SDS011;55864;49.238;8.092;2022-08-01T05:20:59;4.70;;;1.90;;
68858;SDS011;55864;49.238;8.092;2022-08-01T05:22:59;3.95;;;1.83;;
68858;SDS011;55864;49.238;8.092;2022-08-01T05:25:00;8.20;;;2.10;;
68858;SDS011;55864;49.238;8.092;2022-08-01T05:27:00;4.18;;;1.80;;
68858;SDS011;55864;49.238;8.092;2022-08-01T05:29:01;3.85;;;1.70;;
68858;SDS011;55864;49.238;8.092;2022-08-01T05:31:02;4.32;;;1.95;;
68858;SDS011;55864;49.238;8.092;2022-08-01T05:33:03;6.25;;;1.90;;
68858;SDS011;55864;49.238;8.092;2022-08-01T05:35:05;6.53;;;2.42;;
68858;SDS011;55864;49.238;8.092;2022-08-01T05:37:07;6.13;;;1.98;;
68858;SDS011;55864;49.238;8.092;2022-08-01T05:39:08;5.30;;;2.10;;
68858;SDS011;55864;49.238;8.092;2022-08-01T05:41:08;4.63;;;1.92;;
68858;SDS011;55864;49.238;8.092;2022-08-01T05:43:10;6.20;;;2.20;;
68858;SDS011;55864;49.238;8.092;2022-08-01T05:45:10;4.45;;;1.92;;
68858;SDS011;55864;49.238;8.092;2022-08-01T05:47:11;9.32;;;2.22;;
68858;SDS011;55864;49.238;8.092;2022-08-01T05:49:12;6.03;;;1.88;;
68858;SDS011;55864;49.238;8.092;2022-08-01T05:51:13;4.22;;;1.70;;
68858;SDS011;55864;49.238;8.092;2022-08-01T05:53:14;5.25;;;1.92;;
68858;SDS011;55864;49.238;8.092;2022-08-01T05:55:15;5.63;;;2.00;;
68858;SDS011;55864;49.238;8.092;2022-08-01T05:57:15;4.85;;;1.80;;
68858;SDS011;55864;49.238;8.092;2022-08-01T05:59:16;5.43;;;1.75;;
68858;SDS011;55864;49.238;8.092;2022-08-01T06:01:16;5.95;;;2.00;;
68858;SDS011;55864;49.238;8.092;2022-08-01T06:03:17;4.72;;;1.67;;
68858;SDS011;55864;49.238;8.092;2022-08-01T06:05:17;4.13;;;1.67;;
68858;SDS011;55864;49.238;8.092;2022-08-01T06:07:19;4.88;;;1.90;;
68858;SDS011;55864;49.238;8.092;2022-08-01T06:09:20;6.05;;;1.85;;
68858;SDS011;55864;49.238;8.092;2022-08-01T06:11:20;4.93;;;1.90;;
68858;SDS011;55864;49.238;8.092;2022-08-01T06:13:21;4.95;;;2.10;;
68858;SDS011;55864;49.238;8.092;2022-08-01T06:15:22;4.68;;;1.85;;
68858;SDS011;55864;49.238;8.092;2022-08-01T06:17:22;5.53;;;1.80;;
68858;SDS011;55864;49.238;8.092;2022-08-01T06:19:23;4.25;;;1.88;;
68858;SDS011;55864;49.238;8.092;2022-08-01T06:21:23;4.40;;;2.05;;
68858;SDS011;55864;49.238;8.092;2022-08-01T06:23:25;5.82;;;2.30;;
68858;SDS011;55864;49.238;8.092;2022-08-01T06:25:26;4.30;;;2.00;;
68858;SDS011;55864;49.238;8.092;2022-08-01T06:27:26;4.68;;;1.83;;
68858;SDS011;55864;49.238;8.092;2022-08-01T06:29:27;4.55;;;1.90;;
68858;SDS011;55864;49.238;8.092;2022-08-01T06:33:30;5.40;;;2.13;;
68858;SDS011;55864;49.238;8.092;2022-08-01T06:35:31;5.32;;;2.08;;
68858;SDS011;55864;49.238;8.092;2022-08-01T06:37:32;4.28;;;1.90;;
68858;SDS011;55864;49.238;8.092;2022-08-01T06:39:34;6.85;;;2.10;;
68858;SDS011;55864;49.238;8.092;2022-08-01T06:41:34;4.70;;;1.85;;
68858;SDS011;55864;49.238;8.092;2022-08-01T06:43:35;9.13;;;1.92;;
68858;SDS011;55864;49.238;8.092;2022-08-01T06:45:35;7.57;;;2.13;;
68858;SDS011;55864;49.238;8.092;2022-08-01T06:47:36;4.88;;;2.22;;
68858;SDS011;55864;49.238;8.092;2022-08-01T06:49:37;6.15;;;2.05;;
68858;SDS011;55864;49.238;8.092;2022-08-01T06:51:38;5.93;;;1.98;;
68858;SDS011;55864;49.238;8.092;2022-08-01T06:53:39;6.93;;;2.03;;
68858;SDS011;55864;49.238;8.092;2022-08-01T06:55:41;4.47;;;1.80;;
68858;SDS011;55864;49.238;8.092;2022-08-01T06:57:45;5.53;;;1.98;;
68858;SDS011;55864;49.238;8.092;2022-08-01T06:59:46;5.28;;;1.70;;
68858;SDS011;55864;49.238;8.092;2022-08-01T07:01:47;4.32;;;1.70;;
68858;SDS011;55864;49.238;8.092;2022-08-01T07:03:48;7.30;;;1.90;;
68858;SDS011;55864;49.238;8.092;2022-08-01T07:05:51;3.92;;;1.80;;
68858;SDS011;55864;49.238;8.092;2022-08-01T07:07:51;6.50;;;2.03;;
68858;SDS011;55864;49.238;8.092;2022-08-01T07:09:52;5.28;;;2.30;;
68858;SDS011;55864;49.238;8.092;2022-08-01T07:11:54;4.88;;;2.08;;
68858;SDS011;55864;49.238;8.092;2022-08-01T07:13:55;4.57;;;1.90;;
68858;SDS011;55864;49.238;8.092;2022-08-01T07:15:55;4.28;;;2.00;;
68858;SDS011;55864;49.238;8.092;2022-08-01T07:17:56;7.07;;;2.35;;
68858;SDS011;55864;49.238;8.092;2022-08-01T07:19:57;4.18;;;1.90;;
68858;SDS011;55864;49.238;8.092;2022-08-01T07:21:57;4.30;;;1.85;;
68858;SDS011;55864;49.238;8.092;2022-08-01T07:23:58;5.13;;;1.75;;
68858;SDS011;55864;49.238;8.092;2022-08-01T07:25:58;4.93;;;1.80;;
68858;SDS011;55864;49.238;8.092;2022-08-01T07:28:00;4.93;;;1.90;;
68858;SDS011;55864;49.238;8.092;2022-08-01T07:30:01;9.00;;;2.03;;
68858;SDS011;55864;49.238;8.092;2022-08-01T07:32:03;5.55;;;1.77;;
68858;SDS011;55864;49.238;8.092;2022-08-01T07:34:04;5.53;;;1.70;;
68858;SDS011;55864;49.238;8.092;2022-08-01T07:36:05;5.28;;;1.95;;
68858;SDS011;55864;49.238;8.092;2022-08-01T07:38:05;4.40;;;1.95;;
68858;SDS011;55864;49.238;8.092;2022-08-01T07:40:07;3.75;;;1.60;;
68858;SDS011;55864;49.238;8.092;2022-08-01T07:42:08;3.38;;;1.58;;
68858;SDS011;55864;49.238;8.092;2022-08-01T07:44:10;5.90;;;1.60;;
68858;SDS011;55864;49.238;8.092;2022-08-01T07:46:11;5.00;;;2.15;;
68858;SDS011;55864;49.238;8.092;2022-08-01T07:48:11;7.80;;;1.80;;
68858;SDS011;55864;49.238;8.092;2022-08-01T07:50:12;4.35;;;1.70;;
68858;SDS011;55864;49.238;8.092;2022-08-01T07:52:12;4.03;;;1.60;;
68858;SDS011;55864;49.238;8.092;2022-08-01T07:54:13;5.43;;;1.90;;
68858;SDS011;55864;49.238;8.092;2022-08-01T07:56:14;6.70;;;1.70;;
68858;SDS011;55864;49.238;8.092;2022-08-01T07:58:14;7.05;;;1.92;;
68858;SDS011;55864;49.238;8.092;2022-08-01T08:00:16;4.25;;;1.75;;
68858;SDS011;55864;49.238;8.092;2022-08-01T08:02:17;4.22;;;1.80;;
68858;SDS011;55864;49.238;8.092;2022-08-01T08:04:18;5.35;;;1.90;;
68858;SDS011;55864;49.238;8.092;2022-08-01T08:06:18;3.95;;;1.83;;
68858;SDS011;55864;49.238;8.092;2022-08-01T08:08:19;4.28;;;1.60;;
68858;SDS011;55864;49.238;8.092;2022-08-01T08:10:19;5.18;;;1.70;;
68858;SDS011;55864;49.238;8.092;2022-08-01T08:12:20;3.85;;;1.60;;
68858;SDS011;55864;49.238;8.092;2022-08-01T08:14:20;5.47;;;1.83;;
68858;SDS011;55864;49.238;8.092;2022-08-01T08:16:22;5.22;;;1.83;;
68858;SDS011;55864;49.238;8.092;2022-08-01T08:18:23;4.53;;;1.70;;
68858;SDS011;55864;49.238;8.092;2022-08-01T08:20:23;6.45;;;1.80;;
68858;SDS011;55864;49.238;8.092;2022-08-01T08:22:24;4.65;;;1.80;;
68858;SDS011;55864;49.238;8.092;2022-08-01T08:24:24;3.60;;;1.50;;
68858;SDS011;55864;49.238;8.092;2022-08-01T08:26:25;4.30;;;1.70;;
68858;SDS011;55864;49.238;8.092;2022-08-01T08:28:26;8.13;;;1.77;;
68858;SDS011;55864;49.238;8.092;2022-08-01T08:30:26;3.80;;;1.52;;
68858;SDS011;55864;49.238;8.092;2022-08-01T08:32:28;4.75;;;1.90;;
68858;SDS011;55864;49.238;8.092;2022-08-01T08:34:29;3.58;;;1.60;;
68858;SDS011;55864;49.238;8.092;2022-08-01T08:36:30;4.80;;;1.80;;
68858;SDS011;55864;49.238;8.092;2022-08-01T08:38:30;4.07;;;1.58;;
68858;SDS011;55864;49.238;8.092;2022-08-01T08:40:31;3.05;;;1.45;;
68858;SDS011;55864;49.238;8.092;2022-08-01T08:42:34;4.93;;;1.58;;
68858;SDS011;55864;49.238;8.092;2022-08-01T08:44:35;4.00;;;1.42;;
68858;SDS011;55864;49.238;8.092;2022-08-01T08:46:39;3.85;;;1.63;;
68858;SDS011;55864;49.238;8.092;2022-08-01T08:48:43;4.25;;;1.55;;
68858;SDS011;55864;49.238;8.092;2022-08-01T08:52:45;5.75;;;1.70;;
68858;SDS011;55864;49.238;8.092;2022-08-01T08:54:47;9.05;;;1.90;;
68858;SDS011;55864;49.238;8.092;2022-08-01T08:56:48;4.15;;;1.52;;
68858;SDS011;55864;49.238;8.092;2022-08-01T08:58:50;4.57;;;1.67;;
68858;SDS011;55864;49.238;8.092;2022-08-01T09:00:52;5.95;;;1.60;;
68858;SDS011;55864;49.238;8.092;2022-08-01T09:02:53;4.22;;;1.60;;
68858;SDS011;55864;49.238;8.092;2022-08-01T09:04:55;6.13;;;1.80;;
68858;SDS011;55864;49.238;8.092;2022-08-01T09:06:56;4.40;;;1.67;;
68858;SDS011;55864;49.238;8.092;2022-08-01T09:08:57;6.13;;;1.80;;
68858;SDS011;55864;49.238;8.092;2022-08-01T09:10:58;6.05;;;1.98;;
68858;SDS011;55864;49.238;8.092;2022-08-01T09:13:02;4.57;;;1.83;;
68858;SDS011;55864;49.238;8.092;2022-08-01T09:15:07;6.13;;;1.73;;
68858;SDS011;55864;49.238;8.092;2022-08-01T09:17:09;4.75;;;1.65;;
68858;SDS011;55864;49.238;8.092;2022-08-01T09:19:11;3.42;;;1.55;;
68858;SDS011;55864;49.238;8.092;2022-08-01T09:23:30;4.53;;;1.75;;
68858;SDS011;55864;49.238;8.092;2022-08-01T09:25:31;7.32;;;2.22;;
68858;SDS011;55864;49.238;8.092;2022-08-01T09:27:50;6.75;;;1.88;;
68858;SDS011;55864;49.238;8.092;2022-08-01T09:30:09;5.38;;;1.65;;
68858;SDS011;55864;49.238;8.092;2022-08-01T09:32:11;6.20;;;1.80;;
68858;SDS011;55864;49.238;8.092;2022-08-01T09:34:12;5.43;;;1.70;;
68858;SDS011;55864;49.238;8.092;2022-08-01T09:36:15;5.18;;;1.67;;
68858;SDS011;55864;49.238;8.092;2022-08-01T09:38:17;5.40;;;1.70;;
68858;SDS011;55864;49.238;8.092;2022-08-01T09:40:19;5.95;;;1.85;;
68858;SDS011;55864;49.238;8.092;2022-08-01T09:42:20;5.07;;;1.70;;
68858;SDS011;55864;49.238;8.092;2022-08-01T09:44:36;4.93;;;1.90;;
68858;SDS011;55864;49.238;8.092;2022-08-01T09:46:44;6.47;;;1.80;;
68858;SDS011;55864;49.238;8.092;2022-08-01T09:48:56;4.68;;;1.60;;
68858;SDS011;55864;49.238;8.092;2022-08-01T09:50:58;5.05;;;1.80;;
68858;SDS011;55864;49.238;8.092;2022-08-01T09:53:01;4.95;;;1.85;;
68858;SDS011;55864;49.238;8.092;2022-08-01T09:55:02;4.25;;;1.88;;
68858;SDS011;55864;49.238;8.092;2022-08-01T09:57:09;4.97;;;1.70;;
68858;SDS011;55864;49.238;8.092;2022-08-01T09:59:12;6.15;;;1.77;;
68858;SDS011;55864;49.238;8.092;2022-08-01T10:01:13;4.22;;;1.73;;
68858;SDS011;55864;49.238;8.092;2022-08-01T10:03:20;9.43;;;2.03;;
68858;SDS011;55864;49.238;8.092;2022-08-01T10:05:29;4.10;;;1.70;;
68858;SDS011;55864;49.238;8.092;2022-08-01T10:07:30;4.57;;;1.80;;
68858;SDS011;55864;49.238;8.092;2022-08-01T10:09:33;4.05;;;1.80;;
68858;SDS011;55864;49.238;8.092;2022-08-01T10:11:36;3.97;;;1.58;;
68858;SDS011;55864;49.238;8.092;2022-08-01T10:13:37;4.28;;;1.70;;
68858;SDS011;55864;49.238;8.092;2022-08-01T10:15:38;4.28;;;1.70;;
68858;SDS011;55864;49.238;8.092;2022-08-01T10:17:39;4.85;;;1.80;;
68858;SDS011;55864;49.238;8.092;2022-08-01T10:19:46;3.78;;;1.42;;
68858;SDS011;55864;49.238;8.092;2022-08-01T10:21:48;4.43;;;1.73;;
68858;SDS011;55864;49.238;8.092;2022-08-01T10:23:49;4.00;;;1.80;;
68858;SDS011;55864;49.238;8.092;2022-08-01T10:25:51;4.53;;;1.67;;
68858;SDS011;55864;49.238;8.092;2022-08-01T10:27:54;6.10;;;1.75;;
68858;SDS011;55864;49.238;8.092;2022-08-01T10:29:57;4.75;;;1.65;;
68858;SDS011;55864;49.238;8.092;2022-08-01T10:31:59;4.53;;;1.75;;
68858;SDS011;55864;49.238;8.092;2022-08-01T10:34:00;4.20;;;1.50;;
68858;SDS011;55864;49.238;8.092;2022-08-01T10:36:01;3.55;;;1.50;;
68858;SDS011;55864;49.238;8.092;2022-08-01T10:38:02;5.03;;;1.60;;
68858;SDS011;55864;49.238;8.092;2022-08-01T10:40:03;4.40;;;1.67;;
68858;SDS011;55864;49.238;8.092;2022-08-01T10:44:09;4.10;;;1.50;;
68858;SDS011;55864;49.238;8.092;2022-08-01T10:46:10;5.57;;;1.90;;
68858;SDS011;55864;49.238;8.092;2022-08-01T10:48:12;4.82;;;1.60;;
68858;SDS011;55864;49.238;8.092;2022-08-01T10:50:19;4.40;;;1.60;;
68858;SDS011;55864;49.238;8.092;2022-08-01T10:52:25;4.47;;;1.70;;
68858;SDS011;55864;49.238;8.092;2022-08-01T10:54:26;4.50;;;1.52;;
68858;SDS011;55864;49.238;8.092;2022-08-01T10:56:26;3.50;;;1.60;;
68858;SDS011;55864;49.238;8.092;2022-08-01T10:58:41;5.65;;;1.70;;
68858;SDS011;55864;49.238;8.092;2022-08-01T11:00:43;4.15;;;1.60;;
68858;SDS011;55864;49.238;8.092;2022-08-01T11:02:56;3.10;;;1.38;;
68858;SDS011;55864;49.238;8.092;2022-08-01T11:05:00;3.50;;;1.60;;
68858;SDS011;55864;49.238;8.092;2022-08-01T11:07:03;5.20;;;1.60;;
68858;SDS011;55864;49.238;8.092;2022-08-01T11:09:14;4.28;;;1.40;;
68858;SDS011;55864;49.238;8.092;2022-08-01T11:11:20;3.50;;;1.42;;
68858;SDS011;55864;49.238;8.092;2022-08-01T11:13:35;3.95;;;1.40;;
68858;SDS011;55864;49.238;8.092;2022-08-01T11:18:29;5.68;;;1.80;;
68858;SDS011;55864;49.238;8.092;2022-08-01T11:22:44;3.42;;;1.55;;
68858;SDS011;55864;49.238;8.092;2022-08-01T11:25:25;3.33;;;1.40;;
68858;SDS011;55864;49.238;8.092;2022-08-01T11:27:27;2.75;;;1.40;;
68858;SDS011;55864;49.238;8.092;2022-08-01T11:29:30;4.00;;;1.60;;
68858;SDS011;55864;49.238;8.092;2022-08-01T11:31:31;2.95;;;1.38;;
68858;SDS011;55864;49.238;8.092;2022-08-01T11:33:47;4.45;;;1.48;;
68858;SDS011;55864;49.238;8.092;2022-08-01T11:38:22;4.38;;;1.70;;
68858;SDS011;55864;49.238;8.092;2022-08-01T11:40:24;4.22;;;1.50;;
68858;SDS011;55864;49.238;8.092;2022-08-01T11:42:26;6.70;;;1.67;;
68858;SDS011;55864;49.238;8.092;2022-08-01T11:44:27;3.72;;;1.60;;
68858;SDS011;55864;49.238;8.092;2022-08-01T11:51:23;4.60;;;1.60;;
68858;SDS011;55864;49.238;8.092;2022-08-01T11:53:23;5.30;;;1.42;;
68858;SDS011;55864;49.238;8.092;2022-08-01T11:55:24;5.35;;;2.05;;
68858;SDS011;55864;49.238;8.092;2022-08-01T11:57:27;4.07;;;1.60;;
68858;SDS011;55864;49.238;8.092;2022-08-01T11:59:34;3.63;;;1.60;;
68858;SDS011;55864;49.238;8.092;2022-08-01T12:01:36;4.18;;;1.40;;
68858;SDS011;55864;49.238;8.092;2022-08-01T12:03:38;4.60;;;1.60;;
68858;SDS011;55864;49.238;8.092;2022-08-01T12:05:39;10.70;;;1.52;;
68858;SDS011;55864;49.238;8.092;2022-08-01T12:07:44;4.75;;;1.70;;
68858;SDS011;55864;49.238;8.092;2022-08-01T12:09:56;5.78;;;1.50;;
68858;SDS011;55864;49.238;8.092;2022-08-01T12:12:01;3.45;;;1.40;;
68858;SDS011;55864;49.238;8.092;2022-08-01T12:14:01;12.10;;;1.80;;
68858;SDS011;55864;49.238;8.092;2022-08-01T12:16:06;6.07;;;1.60;;
68858;SDS011;55864;49.238;8.092;2022-08-01T12:18:07;5.03;;;1.55;;
68858;SDS011;55864;49.238;8.092;2022-08-01T12:20:09;4.00;;;1.40;;
68858;SDS011;55864;49.238;8.092;2022-08-01T12:22:12;4.30;;;1.52;;
68858;SDS011;55864;49.238;8.092;2022-08-01T12:24:13;2.97;;;1.35;;
68858;SDS011;55864;49.238;8.092;2022-08-01T12:26:22;5.95;;;1.60;;
68858;SDS011;55864;49.238;8.092;2022-08-01T12:28:22;4.18;;;1.45;;
68858;SDS011;55864;49.238;8.092;2022-08-01T12:30:24;4.05;;;1.65;;
68858;SDS011;55864;49.238;8.092;2022-08-01T12:32:26;5.30;;;1.65;;
68858;SDS011;55864;49.238;8.092;2022-08-01T12:34:28;3.50;;;1.40;;
68858;SDS011;55864;49.238;8.092;2022-08-01T12:36:30;6.63;;;1.60;;
68858;SDS011;55864;49.238;8.092;2022-08-01T12:38:31;6.38;;;1.58;;
68858;SDS011;55864;49.238;8.092;2022-08-01T12:40:32;3.72;;;1.40;;
68858;SDS011;55864;49.238;8.092;2022-08-01T12:42:35;10.45;;;1.70;;
68858;SDS011;55864;49.238;8.092;2022-08-01T12:44:36;4.40;;;1.50;;
68858;SDS011;55864;49.238;8.092;2022-08-01T12:46:38;4.70;;;1.40;;
68858;SDS011;55864;49.238;8.092;2022-08-01T12:48:38;3.22;;;1.40;;
68858;SDS011;55864;49.238;8.092;2022-08-01T12:50:39;3.92;;;1.38;;